Time;durP1;ratioP1;P1;durP2;ratioP2;P2;SDS_P1;SDS_P2;PMS_P1;PMS_P2;Temp;Humidity;BMP_temperature;BMP_pressure;BME280_temperature;BME280_humidity;BME280_pressure;Samples;Min_cycle;Max_cycle;Signal;HPM_P1;HPM_P2
2022/04/03 00:00:45;;;;;;;7.47;2.95;;;-0.90;99.90;;;;;;4908897;29;20138;-93
2022/04/03 00:03:11;;;;;;;6.93;2.80;;;-1.00;99.90;;;;;;4908980;29;20517;-93
2022/04/03 00:05:42;;;;;;;8.20;3.17;;;-1.00;99.90;;;;;;4911918;29;20095;-93
2022/04/03 00:08:09;;;;;;;5.47;2.70;;;-1.00;99.90;;;;;;4908122;29;20048;-93
2022/04/03 00:10:35;;;;;;;7.75;2.95;;;-1.00;99.90;;;;;;4926312;29;20043;-93
2022/04/03 00:13:02;;;;;;;7.22;2.97;;;-1.10;99.90;;;;;;4919426;29;20048;-93
2022/04/03 00:15:28;;;;;;;6.78;2.80;;;-1.10;99.90;;;;;;4904578;29;20044;-95
2022/04/03 00:17:54;;;;;;;7.22;3.25;;;-1.10;99.90;;;;;;4912992;29;20127;-92
2022/04/03 00:20:20;;;;;;;10.65;3.17;;;-1.10;99.90;;;;;;4895427;29;20344;-93
2022/04/03 00:22:48;;;;;;;7.50;2.75;;;-1.10;99.90;;;;;;4921627;29;20127;-94
2022/04/03 00:25:18;;;;;;;6.13;2.80;;;-1.10;99.90;;;;;;4898322;29;20051;-93
2022/04/03 00:27:45;;;;;;;10.55;3.72;;;-1.10;99.90;;;;;;4917018;29;20059;-93
2022/04/03 00:30:11;;;;;;;8.45;3.55;;;-1.10;99.90;;;;;;4903816;29;20040;-93
2022/04/03 00:32:37;;;;;;;8.85;3.40;;;-1.00;99.90;;;;;;4900852;29;20079;-94
2022/04/03 00:35:07;;;;;;;8.90;3.75;;;-1.10;99.90;;;;;;4912905;29;20096;-93
2022/04/03 00:37:33;;;;;;;8.57;4.07;;;-1.10;99.90;;;;;;4920017;29;20094;-93
2022/04/03 00:39:59;;;;;;;10.60;3.83;;;-1.10;99.90;;;;;;4908613;29;20048;-93
2022/04/03 00:42:25;;;;;;;7.45;3.95;;;-1.10;99.90;;;;;;4894807;29;20073;-93
2022/04/03 00:44:51;;;;;;;9.00;3.85;;;-1.20;99.90;;;;;;4925016;29;20051;-93
2022/04/03 00:47:19;;;;;;;11.57;4.20;;;-1.20;99.90;;;;;;4904922;29;20123;-93
2022/04/03 00:49:45;;;;;;;7.75;3.10;;;-1.20;99.90;;;;;;4924596;29;20172;-93
2022/04/03 00:52:11;;;;;;;7.82;3.42;;;-1.20;99.90;;;;;;4924888;29;20051;-94
2022/04/03 00:54:37;;;;;;;9.07;3.65;;;-1.30;99.90;;;;;;4904072;29;20076;-94
2022/04/03 00:57:07;;;;;;;8.73;3.90;;;-1.30;99.90;;;;;;4919780;29;20048;-93
2022/04/03 00:59:34;;;;;;;8.23;3.38;;;-1.30;99.90;;;;;;4890394;29;20048;-94
2022/04/03 01:02:00;;;;;;;7.22;3.22;;;-1.30;99.90;;;;;;4904424;29;20066;-94
2022/04/03 01:04:26;;;;;;;6.72;3.15;;;-1.30;99.90;;;;;;4915128;29;20051;-94
2022/04/03 01:06:52;;;;;;;8.60;3.63;;;-1.30;99.90;;;;;;4905232;29;20449;-94
2022/04/03 01:09:18;;;;;;;8.93;3.80;;;-1.30;99.90;;;;;;4911458;29;20051;-94
2022/04/03 01:11:45;;;;;;;8.30;3.70;;;-1.30;99.90;;;;;;4912525;29;20051;-93
2022/04/03 01:14:11;;;;;;;7.72;3.30;;;-1.30;99.90;;;;;;4904764;29;20044;-93
2022/04/03 01:16:37;;;;;;;10.85;3.75;;;-1.40;99.90;;;;;;4905575;29;20052;-94
2022/04/03 01:19:08;;;;;;;7.72;3.13;;;-1.40;99.90;;;;;;4906758;29;20056;-93
2022/04/03 01:21:36;;;;;;;8.73;3.42;;;-1.40;99.90;;;;;;4913152;29;20095;-94
2022/04/03 01:24:02;;;;;;;6.70;3.22;;;-1.40;99.90;;;;;;4900465;29;20062;-94
2022/04/03 01:26:28;;;;;;;8.40;3.55;;;-1.40;99.90;;;;;;4926865;28;20091;-94
2022/04/03 01:28:54;;;;;;;7.78;3.10;;;-1.40;99.90;;;;;;4933264;28;20047;-95
2022/04/03 01:31:22;;;;;;;7.75;3.47;;;-1.50;99.90;;;;;;4931632;28;20039;-94
2022/04/03 01:34:03;;;;;;;6.80;2.92;;;-1.50;99.90;;;;;;4909823;29;20059;-94
2022/04/03 01:36:29;;;;;;;6.88;3.20;;;-1.50;99.90;;;;;;4929410;29;20123;-94
2022/04/03 01:38:55;;;;;;;8.20;3.15;;;-1.50;99.90;;;;;;4904957;29;20047;-94
2022/04/03 01:41:20;;;;;;;8.13;3.38;;;-1.50;99.90;;;;;;4922410;29;20050;-93
2022/04/03 01:43:46;;;;;;;7.65;3.40;;;-1.50;99.90;;;;;;4917222;29;20050;-95
2022/04/03 01:46:12;;;;;;;7.40;2.95;;;-1.40;99.90;;;;;;4925539;29;20023;-94
2022/04/03 01:48:47;;;;;;;6.60;3.13;;;-1.40;99.90;;;;;;4934130;28;20040;-94
2022/04/03 01:51:12;;;;;;;7.90;2.95;;;-1.40;99.90;;;;;;4929281;28;20047;-94
2022/04/03 01:53:38;;;;;;;7.35;3.20;;;-1.50;99.90;;;;;;4915825;29;20541;-93
2022/04/03 01:56:06;;;;;;;9.00;3.05;;;-1.40;99.90;;;;;;4914821;29;20059;-94
2022/04/03 01:58:33;;;;;;;8.85;3.33;;;-1.50;99.90;;;;;;4909043;29;20044;-93
2022/04/03 02:01:00;;;;;;;7.05;3.13;;;-1.50;99.90;;;;;;4909837;29;20040;-94
2022/04/03 02:03:37;;;;;;;8.38;3.72;;;-1.50;99.90;;;;;;4907542;29;20400;-93
2022/04/03 02:06:03;;;;;;;6.85;3.15;;;-1.50;99.90;;;;;;4902242;29;20080;-96
2022/04/03 02:08:29;;;;;;;8.50;2.97;;;-1.40;99.90;;;;;;4921512;29;20067;-93
2022/04/03 02:10:55;;;;;;;7.38;3.17;;;-1.50;99.90;;;;;;4923550;29;20056;-94
2022/04/03 02:13:20;;;;;;;8.38;3.17;;;-1.40;99.90;;;;;;4928023;29;20294;-93
2022/04/03 02:15:46;;;;;;;8.02;3.20;;;-1.40;99.90;;;;;;4914367;29;20051;-93
2022/04/03 02:18:12;;;;;;;8.70;3.47;;;-1.30;99.90;;;;;;4906777;29;20195;-94
2022/04/03 02:20:38;;;;;;;9.13;3.33;;;-1.30;99.90;;;;;;4900493;29;20044;-93
2022/04/03 02:23:05;;;;;;;6.78;3.10;;;-1.20;99.90;;;;;;4906308;29;20048;-93
2022/04/03 02:25:33;;;;;;;9.25;3.97;;;-1.20;99.90;;;;;;4905044;29;20048;-93
2022/04/03 02:27:59;;;;;;;8.18;3.20;;;-1.10;99.90;;;;;;4891202;29;20525;-94
2022/04/03 02:30:25;;;;;;;9.75;3.58;;;-1.00;99.90;;;;;;4914730;29;20044;-94
2022/04/03 02:32:52;;;;;;;8.93;3.58;;;-1.10;99.90;;;;;;4926613;29;20044;-93
2022/04/03 02:35:18;;;;;;;7.10;2.83;;;-1.00;99.90;;;;;;4903484;29;20086;-95
2022/04/03 02:37:44;;;;;;;8.02;2.97;;;-1.10;99.90;;;;;;4901182;29;20075;-93
2022/04/03 02:40:12;;;;;;;6.85;2.97;;;-1.10;99.90;;;;;;4894638;29;20561;-94
2022/04/03 02:42:38;;;;;;;9.18;3.08;;;-1.10;99.90;;;;;;4921651;29;20099;-93
2022/04/03 02:45:05;;;;;;;5.95;2.80;;;-1.20;99.90;;;;;;4924901;29;20047;-93
2022/04/03 02:47:32;;;;;;;8.95;3.92;;;-1.30;99.90;;;;;;4901231;29;20103;-94
2022/04/03 02:49:58;;;;;;;7.03;3.20;;;-1.30;99.90;;;;;;4899944;29;20040;-94
2022/04/03 02:52:23;;;;;;;7.00;3.17;;;-1.40;99.90;;;;;;4899017;29;20100;-94
2022/04/03 02:54:49;;;;;;;9.52;4.22;;;-1.40;99.90;;;;;;4917956;29;20494;-94
2022/04/03 02:57:16;;;;;;;6.90;3.45;;;-1.40;99.90;;;;;;4917353;29;20345;-94
2022/04/03 02:59:43;;;;;;;7.38;3.40;;;-1.40;99.90;;;;;;4927756;29;20060;-94
2022/04/03 03:02:08;;;;;;;7.70;3.38;;;-1.40;99.90;;;;;;4927232;29;20136;-95
2022/04/03 03:04:37;;;;;;;8.50;3.60;;;-1.50;99.90;;;;;;4905341;29;20048;-94
2022/04/03 03:07:07;;;;;;;7.43;3.47;;;-1.50;99.90;;;;;;4916737;29;20052;-94
2022/04/03 03:09:33;;;;;;;8.05;3.72;;;-1.60;99.90;;;;;;4900729;29;20048;-94
2022/04/03 03:11:59;;;;;;;7.75;3.47;;;-1.50;99.90;;;;;;4905137;29;20047;-94
2022/04/03 03:14:28;;;;;;;11.88;4.40;;;-1.60;99.90;;;;;;4907021;29;20065;-94
2022/04/03 03:16:55;;;;;;;10.20;3.47;;;-1.60;99.90;;;;;;4923024;29;20083;-94
2022/04/03 03:19:21;;;;;;;8.98;3.85;;;-1.60;99.90;;;;;;4920228;29;20048;-95
2022/04/03 03:21:47;;;;;;;10.13;4.15;;;-1.50;99.90;;;;;;4913790;29;20092;-93
2022/04/03 03:24:13;;;;;;;8.23;3.45;;;-1.50;99.90;;;;;;4917959;29;20052;-93
2022/04/03 03:26:39;;;;;;;8.50;3.28;;;-1.40;99.90;;;;;;4923262;29;20504;-93
2022/04/03 03:29:05;;;;;;;8.00;3.75;;;-1.30;99.90;;;;;;4902639;29;20158;-95
2022/04/03 03:31:31;;;;;;;7.75;3.70;;;-1.20;99.90;;;;;;4909923;29;20075;-93
2022/04/03 03:33:56;;;;;;;9.48;3.78;;;-1.10;99.90;;;;;;4915053;29;20036;-93
2022/04/03 03:36:22;;;;;;;8.50;3.55;;;-1.10;99.90;;;;;;4914523;29;20067;-93
2022/04/03 03:38:48;;;;;;;8.95;3.65;;;-1.00;99.90;;;;;;4895338;29;20043;-94
2022/04/03 03:41:16;;;;;;;9.27;3.83;;;-0.90;99.90;;;;;;4921464;29;20078;-93
2022/04/03 03:43:43;;;;;;;8.55;3.50;;;-0.90;99.90;;;;;;4918091;29;20043;-93
2022/04/03 03:46:09;;;;;;;8.10;3.42;;;-0.80;99.90;;;;;;4899054;29;20075;-91
2022/04/03 03:48:36;;;;;;;8.82;3.75;;;-0.70;99.90;;;;;;4907770;29;20082;-93
2022/04/03 03:51:02;;;;;;;10.60;3.72;;;-0.60;99.90;;;;;;4920308;29;20040;-91
2022/04/03 03:53:29;;;;;;;9.05;3.45;;;-0.50;99.90;;;;;;4927302;29;20044;-92
2022/04/03 03:55:55;;;;;;;10.27;3.88;;;-0.40;99.90;;;;;;4887730;29;20040;-93
2022/04/03 03:58:20;;;;;;;8.65;3.78;;;-0.40;99.90;;;;;;4919575;29;20369;-92
2022/04/03 04:00:46;;;;;;;9.02;3.60;;;-0.30;99.90;;;;;;4892073;29;20338;-91
2022/04/03 04:03:12;;;;;;;8.57;3.42;;;-0.30;99.90;;;;;;4923722;29;20044;-93
2022/04/03 04:05:40;;;;;;;7.53;3.30;;;-0.20;99.90;;;;;;4905860;29;20082;-92
2022/04/03 04:08:07;;;;;;;11.35;3.80;;;-0.20;99.90;;;;;;4906465;29;20459;-91
2022/04/03 04:10:33;;;;;;;8.40;3.22;;;-0.10;99.90;;;;;;4906968;29;20069;-91
2022/04/03 04:12:58;;;;;;;8.50;3.83;;;-0.10;99.90;;;;;;4919579;29;20537;-91
2022/04/03 04:15:25;;;;;;;7.32;3.40;;;-0.10;99.90;;;;;;4910081;29;20051;-90
2022/04/03 04:17:55;;;;;;;7.93;3.08;;;0.00;99.90;;;;;;4911254;29;20383;-92
2022/04/03 04:20:21;;;;;;;7.40;3.25;;;0.00;99.90;;;;;;4901936;29;20492;-92
2022/04/03 04:22:48;;;;;;;7.18;3.17;;;0.00;99.90;;;;;;4915015;29;20131;-92
2022/04/03 04:25:16;;;;;;;6.68;3.00;;;0.00;99.90;;;;;;4901872;29;20380;-92
2022/04/03 04:27:43;;;;;;;7.63;3.17;;;0.10;99.90;;;;;;4909932;29;20089;-91
2022/04/03 04:30:09;;;;;;;7.88;3.30;;;0.10;99.90;;;;;;4918753;29;20544;-92
2022/04/03 04:32:35;;;;;;;8.40;3.50;;;0.10;99.90;;;;;;4913958;29;20200;-91
2022/04/03 04:35:01;;;;;;;8.82;3.40;;;0.10;99.90;;;;;;4922649;29;20123;-92
2022/04/03 04:37:26;;;;;;;8.45;3.63;;;0.20;99.90;;;;;;4905810;29;20051;-91
2022/04/03 04:39:53;;;;;;;8.10;4.30;;;0.20;99.90;;;;;;4901913;29;20043;-92
2022/04/03 04:42:19;;;;;;;8.55;4.20;;;0.20;99.90;;;;;;4905005;29;20048;-91
2022/04/03 04:44:45;;;;;;;9.35;4.93;;;0.20;99.90;;;;;;4921071;29;20029;-92
2022/04/03 04:47:10;;;;;;;8.10;4.22;;;0.20;99.90;;;;;;4898713;29;20056;-92
2022/04/03 04:49:37;;;;;;;8.88;3.53;;;0.20;99.90;;;;;;4902671;29;20090;-91
2022/04/03 04:52:03;;;;;;;10.18;4.32;;;0.20;99.90;;;;;;4900719;29;20087;-92
2022/04/03 04:54:30;;;;;;;8.50;3.85;;;0.10;99.90;;;;;;4904963;29;20054;-92
2022/04/03 04:56:56;;;;;;;7.25;3.67;;;0.20;99.90;;;;;;4918649;29;20055;-92
2022/04/03 04:59:22;;;;;;;8.15;3.60;;;0.10;99.90;;;;;;4913460;29;20103;-92
2022/04/03 05:01:48;;;;;;;8.23;3.83;;;0.00;99.90;;;;;;4921221;29;20134;-91
2022/04/03 05:04:13;;;;;;;7.28;3.45;;;0.00;99.90;;;;;;4923144;29;20050;-91
2022/04/03 05:06:40;;;;;;;9.00;4.43;;;-0.10;99.90;;;;;;4901311;29;20044;-92
2022/04/03 05:09:05;;;;;;;8.40;3.65;;;-0.10;99.90;;;;;;4918864;29;20123;-92
2022/04/03 05:11:32;;;;;;;7.68;3.60;;;-0.20;99.90;;;;;;4902342;29;20497;-91
2022/04/03 05:13:58;;;;;;;8.50;3.67;;;-0.20;99.90;;;;;;4899815;29;20106;-92
2022/04/03 05:16:25;;;;;;;10.13;4.55;;;-0.20;99.90;;;;;;4903463;29;20072;-92
2022/04/03 05:18:54;;;;;;;8.82;3.97;;;-0.30;99.90;;;;;;4910003;29;20035;-92
2022/04/03 05:21:21;;;;;;;7.22;3.33;;;-0.30;99.90;;;;;;4897685;29;20136;-90
2022/04/03 05:23:46;;;;;;;8.50;3.75;;;-0.30;99.90;;;;;;4926753;29;20099;-91
2022/04/03 05:26:12;;;;;;;8.00;3.80;;;-0.30;99.90;;;;;;4902999;29;20047;-90
2022/04/03 05:28:38;;;;;;;9.05;4.25;;;-0.40;99.90;;;;;;4934945;29;20378;-90
2022/04/03 05:31:03;;;;;;;9.15;4.15;;;-0.30;99.90;;;;;;4923473;29;20072;-91
2022/04/03 05:33:29;;;;;;;8.55;4.10;;;-0.40;99.90;;;;;;4918482;29;20131;-90
2022/04/03 05:35:55;;;;;;;8.00;3.95;;;-0.40;99.90;;;;;;4931766;29;20142;-93
2022/04/03 05:38:21;;;;;;;9.73;4.53;;;-0.40;99.90;;;;;;4919840;29;20044;-92
2022/04/03 05:40:46;;;;;;;8.05;3.80;;;-0.40;99.90;;;;;;4926924;29;20366;-90
2022/04/03 05:43:12;;;;;;;8.80;3.67;;;-0.40;99.90;;;;;;4903435;29;20409;-90
2022/04/03 05:45:38;;;;;;;8.40;3.72;;;-0.40;99.90;;;;;;4911690;29;20521;-93
2022/04/03 05:48:07;;;;;;;8.55;3.70;;;-0.40;99.90;;;;;;4908899;29;20095;-90
2022/04/03 05:50:33;;;;;;;7.75;3.47;;;-0.50;99.90;;;;;;4915324;29;20063;-90
2022/04/03 05:52:59;;;;;;;7.50;3.72;;;-0.50;99.90;;;;;;4941176;28;20036;-92
2022/04/03 05:55:25;;;;;;;9.20;4.18;;;-0.50;99.90;;;;;;4925879;29;20092;-92
2022/04/03 05:57:52;;;;;;;6.88;3.60;;;-0.50;99.90;;;;;;4917744;29;20131;-91
2022/04/03 06:00:20;;;;;;;9.02;3.58;;;-0.50;99.90;;;;;;4903795;29;20059;-89
2022/04/03 06:02:50;;;;;;;9.23;3.97;;;-0.60;99.90;;;;;;4890780;29;20122;-92
2022/04/03 06:05:18;;;;;;;7.85;3.72;;;-0.50;99.90;;;;;;4885940;29;20056;-90
2022/04/03 06:07:43;;;;;;;9.90;4.07;;;-0.50;99.90;;;;;;4884942;29;20063;-90
2022/04/03 06:10:10;;;;;;;9.02;3.90;;;-0.50;99.90;;;;;;4893335;29;20048;-90
2022/04/03 06:12:36;;;;;;;8.05;3.42;;;-0.40;99.90;;;;;;4900862;29;20076;-91
2022/04/03 06:15:03;;;;;;;8.48;3.70;;;-0.40;99.90;;;;;;4919119;29;20060;-91
2022/04/03 06:17:28;;;;;;;7.82;4.13;;;-0.30;99.90;;;;;;4926192;29;20051;-91
2022/04/03 06:19:54;;;;;;;8.65;3.53;;;-0.10;99.90;;;;;;4910932;29;20094;-92
2022/04/03 06:22:20;;;;;;;8.00;3.70;;;-0.20;99.90;;;;;;4925814;29;20043;-92
2022/04/03 06:24:45;;;;;;;9.40;3.95;;;-0.10;99.90;;;;;;4924409;29;20055;-91
2022/04/03 06:27:11;;;;;;;9.82;4.00;;;0.00;99.90;;;;;;4904156;29;20047;-90
2022/04/03 06:29:37;;;;;;;9.63;4.20;;;0.10;99.90;;;;;;4911172;29;20337;-92
2022/04/03 06:32:03;;;;;;;11.40;4.30;;;0.40;99.90;;;;;;4900036;29;20048;-89
2022/04/03 06:34:29;;;;;;;9.35;4.07;;;0.60;99.90;;;;;;4924676;29;20047;-89
2022/04/03 06:36:55;;;;;;;9.85;4.07;;;0.80;99.90;;;;;;4893197;29;20653;-90
2022/04/03 06:39:20;;;;;;;7.82;4.07;;;0.90;99.90;;;;;;4919593;29;20364;-89
2022/04/03 06:41:46;;;;;;;9.52;4.43;;;1.10;99.90;;;;;;4928165;29;20123;-89
2022/04/03 06:44:12;;;;;;;7.97;3.85;;;1.20;99.90;;;;;;4909712;29;20050;-90
2022/04/03 06:46:38;;;;;;;7.40;3.28;;;1.30;99.90;;;;;;4909138;29;20050;-89
2022/04/03 06:49:03;;;;;;;11.68;3.92;;;1.30;99.90;;;;;;4925418;29;20378;-90
2022/04/03 06:51:29;;;;;;;7.43;3.50;;;1.30;99.90;;;;;;4924140;29;20185;-89
2022/04/03 06:53:55;;;;;;;5.65;2.85;;;1.40;99.90;;;;;;4903204;29;20039;-88
2022/04/03 06:56:20;;;;;;;7.60;3.80;;;1.50;99.90;;;;;;4907352;29;20055;-89
2022/04/03 06:58:46;;;;;;;8.32;3.72;;;1.70;99.90;;;;;;4910187;29;20035;-90
2022/04/03 07:01:11;;;;;;;9.32;3.83;;;1.60;99.90;;;;;;4921333;29;20044;-89
2022/04/03 07:03:37;;;;;;;7.40;4.10;;;1.80;99.90;;;;;;4891489;29;20414;-91
2022/04/03 07:06:03;;;;;;;8.77;4.28;;;1.90;99.90;;;;;;4920579;29;20552;-91
2022/04/03 07:08:28;;;;;;;8.48;4.00;;;2.10;99.90;;;;;;4930898;29;20074;-92
2022/04/03 07:10:57;;;;;;;9.52;3.72;;;2.30;99.90;;;;;;4913271;29;20078;-91
2022/04/03 07:13:23;;;;;;;8.20;3.20;;;2.40;99.90;;;;;;4912254;29;20048;-92
2022/04/03 07:15:49;;;;;;;7.20;3.13;;;2.70;99.90;;;;;;4913335;29;20055;-92
2022/04/03 07:18:16;;;;;;;7.28;2.92;;;2.80;99.90;;;;;;4892642;29;20084;-93
2022/04/03 07:20:45;;;;;;;5.50;2.70;;;2.90;99.90;;;;;;4905007;29;20260;-93
2022/04/03 07:23:10;;;;;;;6.13;2.80;;;3.10;99.90;;;;;;4904768;29;20054;-93
2022/04/03 07:25:36;;;;;;;7.43;2.90;;;3.20;99.90;;;;;;4911501;29;20130;-92
2022/04/03 07:28:02;;;;;;;6.97;2.80;;;3.30;99.90;;;;;;4940291;29;20048;-94
2022/04/03 07:30:27;;;;;;;6.13;2.60;;;3.40;99.90;;;;;;4896252;29;20039;-93
2022/04/03 07:32:53;;;;;;;8.95;3.20;;;3.60;99.90;;;;;;4911116;29;20070;-94
2022/04/03 07:35:19;;;;;;;5.85;2.40;;;3.70;99.90;;;;;;4920287;29;20067;-91
2022/04/03 07:37:44;;;;;;;6.15;2.55;;;3.80;99.90;;;;;;4919104;29;20040;-91
2022/04/03 07:40:11;;;;;;;6.10;2.22;;;3.90;99.90;;;;;;4905826;29;20109;-92
2022/04/03 07:42:39;;;;;;;8.23;2.08;;;4.00;99.90;;;;;;4915453;29;20050;-93
2022/04/03 07:45:05;;;;;;;6.15;2.30;;;4.10;99.90;;;;;;4906173;29;20048;-93
2022/04/03 07:47:31;;;;;;;5.88;2.33;;;4.20;99.90;;;;;;4927732;29;20090;-92
2022/04/03 07:50:06;;;;;;;7.80;2.38;;;4.30;99.90;;;;;;4905087;29;20083;-96
2022/04/03 07:52:32;;;;;;;6.70;2.53;;;4.40;99.90;;;;;;4909520;29;20119;-94
2022/04/03 07:54:58;;;;;;;6.32;2.22;;;4.50;99.90;;;;;;4916184;29;20035;-94
2022/04/03 07:57:24;;;;;;;6.68;2.47;;;4.60;99.90;;;;;;4900025;29;20051;-94
2022/04/03 07:59:50;;;;;;;7.25;2.03;;;4.70;99.90;;;;;;4908215;29;20044;-93
2022/04/03 08:02:16;;;;;;;7.35;2.05;;;4.70;99.90;;;;;;4900691;29;20379;-94
2022/04/03 08:04:43;;;;;;;7.97;1.95;;;4.80;99.90;;;;;;4910284;29;20044;-94
2022/04/03 08:07:09;;;;;;;7.10;2.08;;;4.80;99.90;;;;;;4933434;29;20139;-94
2022/04/03 08:09:34;;;;;;;5.18;1.85;;;5.00;99.90;;;;;;4907958;29;20044;-95
2022/04/03 08:12:00;;;;;;;8.50;2.63;;;5.00;99.90;;;;;;4913920;29;20134;-95
2022/04/03 08:14:27;;;;;;;5.22;1.65;;;5.10;99.90;;;;;;4901658;29;20039;-94
2022/04/03 08:16:53;;;;;;;6.40;2.20;;;5.30;99.90;;;;;;4932462;29;20118;-95
2022/04/03 08:19:19;;;;;;;4.38;1.88;;;5.50;99.90;;;;;;4930503;29;20040;-94
2022/04/03 08:21:45;;;;;;;5.07;1.65;;;5.60;99.90;;;;;;4911665;29;20050;-94
2022/04/03 08:24:11;;;;;;;4.72;1.80;;;5.70;99.90;;;;;;4913722;29;20043;-95
2022/04/03 08:26:36;;;;;;;7.68;3.25;;;5.70;99.90;;;;;;4897013;29;20051;-94
2022/04/03 08:29:02;;;;;;;7.25;1.88;;;5.90;99.90;;;;;;4910167;29;20072;-94
2022/04/03 08:31:28;;;;;;;5.90;1.67;;;6.00;99.90;;;;;;4912048;29;20052;-95
2022/04/03 08:33:54;;;;;;;7.25;2.03;;;6.20;99.90;;;;;;4909127;29;20052;-94
2022/04/03 08:36:20;;;;;;;4.95;1.50;;;6.30;99.90;;;;;;4909265;29;20052;-95
2022/04/03 08:38:46;;;;;;;7.25;1.90;;;6.40;99.90;;;;;;4914113;29;20107;-95
2022/04/03 08:41:12;;;;;;;6.85;2.33;;;6.40;99.90;;;;;;4922229;29;20512;-95
2022/04/03 08:43:40;;;;;;;5.68;1.77;;;6.50;99.90;;;;;;4928815;29;20431;-94
2022/04/03 08:46:07;;;;;;;9.70;3.08;;;6.60;99.90;;;;;;4911216;29;20043;-93
2022/04/03 08:48:33;;;;;;;6.00;1.95;;;6.70;99.90;;;;;;4923192;29;20039;-95
2022/04/03 08:51:03;;;;;;;6.15;1.55;;;6.60;99.90;;;;;;4928618;29;20044;-94
2022/04/03 08:53:31;;;;;;;8.80;2.65;;;6.70;99.90;;;;;;4932867;29;20052;-94
2022/04/03 08:55:57;;;;;;;4.63;1.60;;;6.50;99.90;;;;;;4915306;29;20059;-95
2022/04/03 08:58:23;;;;;;;5.03;1.50;;;6.50;99.90;;;;;;4911549;29;20054;-95
2022/04/03 09:00:49;;;;;;;3.63;1.50;;;6.50;99.90;;;;;;4928415;29;20067;-95
2022/04/03 09:03:15;;;;;;;5.55;1.65;;;6.50;99.90;;;;;;4929672;29;20068;-93
2022/04/03 09:05:43;;;;;;;5.82;2.65;;;6.50;99.90;;;;;;4935480;29;20040;-96
2022/04/03 09:08:19;;;;;;;6.78;3.17;;;6.50;99.90;;;;;;4935610;29;20044;-95
2022/04/03 09:11:04;;;;;;;11.07;6.55;;;6.70;99.90;;;;;;4930643;29;20055;-95
2022/04/03 09:13:29;;;;;;;6.80;2.90;;;6.80;99.90;;;;;;4910877;29;20046;-95
2022/04/03 09:15:55;;;;;;;8.88;3.45;;;6.90;99.90;;;;;;4915627;29;20492;-96
2022/04/03 09:18:21;;;;;;;6.15;1.85;;;7.10;99.90;;;;;;4921223;29;20043;-95
2022/04/03 09:20:47;;;;;;;18.25;11.02;;;7.20;99.90;;;;;;4928356;29;20113;-94
2022/04/03 09:23:17;;;;;;;3.90;1.77;;;7.50;99.90;;;;;;4912235;29;20050;-93
2022/04/03 09:25:50;;;;;;;4.17;1.40;;;7.60;99.90;;;;;;4944473;29;20044;-95
2022/04/03 09:28:17;;;;;;;4.97;1.35;;;7.80;99.90;;;;;;4931975;29;20111;-95
2022/04/03 09:30:49;;;;;;;5.10;1.40;;;8.10;99.90;;;;;;4930396;29;20122;-94
2022/04/03 09:33:20;;;;;;;3.45;1.70;;;8.10;99.90;;;;;;4919896;29;20123;-96
2022/04/03 09:35:58;;;;;;;5.70;1.63;;;8.20;99.90;;;;;;4906128;29;20075;-96
2022/04/03 09:38:28;;;;;;;5.47;1.63;;;8.10;99.70;;;;;;4902256;29;20088;-93
2022/04/03 09:40:58;;;;;;;3.97;1.45;;;8.00;99.90;;;;;;4909235;29;20052;-94
2022/04/03 09:43:35;;;;;;;5.57;1.25;;;7.80;99.90;;;;;;4920922;29;20438;-93
2022/04/03 09:46:05;;;;;;;3.47;1.30;;;7.60;98.60;;;;;;4905352;29;20040;-94
2022/04/03 09:48:39;;;;;;;3.47;1.30;;;7.60;99.20;;;;;;4939966;28;20039;-95
2022/04/03 09:51:21;;;;;;;3.58;1.65;;;7.50;99.90;;;;;;4913471;29;20043;-95
2022/04/03 09:53:52;;;;;;;3.55;1.20;;;7.70;99.50;;;;;;4937193;28;20115;-96
2022/04/03 09:58:50;;;;;;;5.35;1.30;;;7.90;97.90;;;;;;4913244;29;20060;-95
2022/04/03 10:01:24;;;;;;;4.15;1.20;;;7.90;95.70;;;;;;4893397;29;20052;-96
2022/04/03 10:03:51;;;;;;;3.25;1.35;;;7.90;88.40;;;;;;4880011;29;20055;-95
2022/04/03 10:06:18;;;;;;;3.20;1.35;;;7.90;93.00;;;;;;4874496;29;20147;-95
2022/04/03 10:08:47;;;;;;;3.22;1.50;;;7.80;94.10;;;;;;4909709;29;20080;-94
2022/04/03 10:11:15;;;;;;;5.32;1.50;;;7.50;96.50;;;;;;4906746;29;20057;-95
2022/04/03 10:13:44;;;;;;;4.63;1.58;;;7.40;99.40;;;;;;4891609;29;20072;-93
2022/04/03 10:16:11;;;;;;;6.47;1.73;;;7.20;99.90;;;;;;4900739;29;20111;-96
2022/04/03 10:18:39;;;;;;;5.68;2.13;;;7.10;99.90;;;;;;4897851;29;20047;-92
2022/04/03 10:21:08;;;;;;;5.03;1.60;;;7.00;99.90;;;;;;4908981;29;20083;-92
2022/04/03 10:23:37;;;;;;;5.53;1.45;;;6.90;99.90;;;;;;4894440;29;20067;-91
2022/04/03 10:26:20;;;;;;;4.35;1.60;;;7.00;99.90;;;;;;4892730;29;20045;-96
2022/04/03 10:28:52;;;;;;;4.38;1.33;;;7.00;99.90;;;;;;4902471;29;20051;-94
2022/04/03 10:31:18;;;;;;;9.13;4.00;;;7.10;99.90;;;;;;4892093;29;20108;-93
2022/04/03 10:33:52;;;;;;;5.18;1.27;;;7.20;99.90;;;;;;4900041;29;20084;-93
2022/04/03 10:36:36;;;;;;;2.65;1.15;;;7.40;99.90;;;;;;4916472;29;20043;-94
2022/04/03 10:39:18;;;;;;;4.30;1.20;;;7.50;99.90;;;;;;4911776;29;20072;-95
2022/04/03 10:41:44;;;;;;;5.40;1.40;;;7.60;99.90;;;;;;4927338;23;20056;-84
2022/04/03 10:44:18;;;;;;;4.25;1.30;;;7.60;99.90;;;;;;4907974;29;20099;-84
2022/04/03 10:47:02;;;;;;;4.18;1.52;;;7.70;98.00;;;;;;4908038;29;20442;-84
2022/04/03 10:49:37;;;;;;;4.43;1.45;;;7.70;95.10;;;;;;4882226;29;20482;-84
2022/04/03 10:52:09;;;;;;;4.60;1.33;;;7.70;97.30;;;;;;4899519;29;20378;-84
2022/04/03 10:54:44;;;;;;;4.15;1.38;;;7.70;97.30;;;;;;4884543;29;20372;-87
2022/04/03 10:57:40;;;;;;;4.22;1.63;;;7.70;97.40;;;;;;4866992;29;20140;-85
2022/04/03 11:00:12;;;;;;;6.03;2.22;;;7.90;99.20;;;;;;4891608;29;20518;-85
2022/04/03 11:02:51;;;;;;;3.50;1.60;;;8.10;99.10;;;;;;4882636;29;20055;-86
2022/04/03 11:05:25;;;;;;;4.47;1.50;;;8.30;96.40;;;;;;4905286;29;20346;-87
2022/04/03 11:08:00;;;;;;;5.22;1.60;;;8.60;93.80;;;;;;4909109;29;20512;-86
2022/04/03 11:10:54;;;;;;;5.30;1.83;;;8.80;91.80;;;;;;4909364;29;20064;-87
2022/04/03 11:13:38;;;;;;;3.65;1.33;;;9.00;88.30;;;;;;4903258;29;20135;-87
2022/04/03 11:16:11;;;;;;;5.05;1.83;;;9.00;85.80;;;;;;4889827;29;20094;-86
2022/04/03 11:18:47;;;;;;;4.53;1.60;;;8.90;84.60;;;;;;4896673;29;20039;-86
2022/04/03 11:21:22;;;;;;;3.42;1.25;;;8.90;84.50;;;;;;4895348;29;20414;-85
2022/04/03 11:24:00;;;;;;;4.85;1.90;;;8.90;83.00;;;;;;4877806;29;20425;-86
2022/04/03 11:26:26;;;;;;;4.28;1.40;;;8.90;86.00;;;;;;4903434;29;20040;-86
2022/04/03 11:28:52;;;;;;;3.70;1.40;;;9.00;85.50;;;;;;4880286;29;20047;-85
2022/04/03 11:31:18;;;;;;;4.03;1.40;;;9.00;85.00;;;;;;4909327;29;20052;-86
2022/04/03 11:33:45;;;;;;;1.83;1.10;;;9.00;85.40;;;;;;4888894;29;20482;-86
2022/04/03 11:36:17;;;;;;;4.57;1.52;;;9.00;84.00;;;;;;4907041;29;20052;-85
2022/04/03 11:38:46;;;;;;;3.35;1.15;;;8.90;82.40;;;;;;4918507;29;20110;-85
2022/04/03 11:41:31;;;;;;;3.92;1.20;;;8.90;81.20;;;;;;4878858;29;20072;-85
2022/04/03 11:44:02;;;;;;;3.17;1.35;;;8.80;80.30;;;;;;4901154;29;20048;-86
2022/04/03 11:46:29;;;;;;;5.57;1.35;;;8.80;80.20;;;;;;4889123;29;20048;-86
2022/04/03 11:48:54;;;;;;;3.30;1.15;;;8.60;79.60;;;;;;4896939;29;20103;-87
2022/04/03 11:51:21;;;;;;;4.43;1.73;;;8.60;80.20;;;;;;4920181;29;20066;-84
2022/04/03 11:53:59;;;;;;;5.53;1.65;;;8.50;82.20;;;;;;4891869;29;20076;-86
2022/04/03 11:56:26;;;;;;;3.60;1.30;;;8.50;84.60;;;;;;4890265;29;20379;-84
2022/04/03 11:58:59;;;;;;;11.95;8.35;;;8.40;84.90;;;;;;4906325;29;20383;-85
2022/04/03 12:01:30;;;;;;;9.13;5.63;;;8.40;85.60;;;;;;4898648;29;20044;-84
2022/04/03 12:04:13;;;;;;;3.38;1.60;;;8.30;85.40;;;;;;4887623;29;20059;-84
2022/04/03 12:06:41;;;;;;;4.10;1.30;;;8.20;84.50;;;;;;4885095;29;20482;-84
2022/04/03 12:09:12;;;;;;;3.30;1.60;;;8.20;86.00;;;;;;4893026;29;20482;-85
2022/04/03 12:11:45;;;;;;;4.82;1.50;;;8.20;85.40;;;;;;4900346;29;20165;-85
2022/04/03 12:14:20;;;;;;;4.13;1.40;;;8.20;85.30;;;;;;4898856;29;20114;-83
2022/04/03 12:16:45;;;;;;;3.05;1.25;;;8.10;87.30;;;;;;4892890;29;20044;-84
2022/04/03 12:19:16;;;;;;;3.00;1.25;;;8.10;89.60;;;;;;4881866;29;20044;-84
2022/04/03 12:21:51;;;;;;;4.10;1.95;;;8.10;91.10;;;;;;4885191;29;20334;-85
2022/04/03 12:24:23;;;;;;;4.20;1.50;;;8.10;91.80;;;;;;4904045;29;20482;-85
2022/04/03 12:26:58;;;;;;;3.90;1.23;;;8.00;92.80;;;;;;4906063;29;20041;-84
2022/04/03 12:29:26;;;;;;;4.00;1.50;;;7.90;92.80;;;;;;4898479;29;20056;-85
2022/04/03 12:32:00;;;;;;;2.65;1.45;;;7.90;93.80;;;;;;4905830;29;20379;-85
2022/04/03 12:34:27;;;;;;;4.65;1.48;;;7.80;94.60;;;;;;4905378;29;20044;-83
2022/04/03 12:36:54;;;;;;;4.80;1.63;;;7.70;94.90;;;;;;4881173;29;20132;-84
2022/04/03 12:39:29;;;;;;;3.83;1.35;;;7.80;95.80;;;;;;4903601;29;21074;-85
2022/04/03 12:41:56;;;;;;;3.60;1.10;;;7.80;95.30;;;;;;4911931;29;20057;-85
2022/04/03 12:44:21;;;;;;;3.47;1.10;;;7.90;94.00;;;;;;4906457;29;20055;-88
2022/04/03 12:46:47;;;;;;;1.40;0.88;;;8.00;92.50;;;;;;4904275;29;20041;-83
2022/04/03 12:49:20;;;;;;;4.10;1.27;;;8.00;91.10;;;;;;4895630;29;20052;-84
2022/04/03 12:51:49;;;;;;;3.63;1.10;;;8.10;90.90;;;;;;4910730;29;20055;-85
2022/04/03 12:54:15;;;;;;;3.47;1.08;;;8.20;90.70;;;;;;4901591;29;20044;-84
2022/04/03 12:59:38;;;;;;;4.82;1.30;;;8.30;90.20;;;;;;4910327;29;20061;-84
2022/04/03 13:02:07;;;;;;;2.85;1.20;;;8.30;89.00;;;;;;4893318;29;20044;-84